Harden Gardens, CA

4:20 PM PST on December 02, 2016 (GMT -0800)
Dodge Ridge - Summit | | Change Station
Active Advisory: High Wind Warning

Elev 8163 ft 38.19 °N, 119.93 °W | Updated 31 seconds ago

Clear
Clear
30.4 °F
Feels Like 30 °F
N
1.8
Wind Variable Wind from ESE
Gusts 6.9 mph

Today
High -- | Low -- °F
--% Chance of Precip.
Yesterday
High -- | Low -- °F
Precip. -- in
Pressure 30.23 in
Visibility 10.0 miles
Clouds Clear
Windchill 30 °F
Dew Point 4 °F
Humidity 32%
Rainfall 0.00 in
Snow Depth Not available.
6:57 AM 4:39 PM
Waxing Crescent, 11% visible
METAR KMMH 030015Z AUTO 27007KT 10SM CLR M03/M17 A3023 RMK AO2 T10301171
Pressure 30.23 in
Visibility 10.0 miles
Clouds Clear
Windchill 30 °F
Dew Point 4 °F
Humidity 32%
Rainfall 0.00 in
Snow Depth Not available.
6:57 AM 4:39 PM
Waxing Crescent, 11% visible
METAR KMMH 030015Z AUTO 27007KT 10SM CLR M03/M17 A3023 RMK AO2 T10301171

10-Day Weather Forecast

Almanac

Astronomy

Dec. 02, 2016 Rise Set
Actual Time
Civil Twilight
Nautical Twilight
Astronomical Twilight
Moon
Length of Visible Light
Length of Day
Tomorrow will be .
, % of the Moon is Illuminated

Today's Extremes

State Highs State Lows

Community

WunderPhotos

Upload Photos

1,955,379 photos uploaded!

WunderBlog® & News

Nearby

Air Quality

  Air Quality AQ Index Pollutant
Not available.

Snow Depth

Station Depth Elevation

Earthquake Activity

City Distance Mag. Time & Date
Minimum magnitude displayed is 2.5.

Coastal Water Temperatures

Place Temperature

Stations

Nearby Weather Stations

Station Location Temp. Windchill Dew Point Humidity Wind Precip. Elev Updated Type
                   

Watches & Warnings

High Wind Warning
Issued: 12:36 PM PST Dec. 2, 2016 – National Weather Service

... High Wind Warning remains in effect until 10 PM PST this
evening...

* timing... strong winds are expected through this evening.

* Winds... northeast to east 30 to 40 mph with gusts around 60
mph.

* Impacts... strong Crosswinds are possible which can cause
numerous trees to fall on structures and across roadways.

Precautionary/preparedness actions...

A High Wind Warning means a hazardous high wind event is expected
or occurring. Sustained wind speeds of at least 40 mph or gusts
of 58 mph or more can lead to property damage.